sensor_id;sensor_type;location;lat;lon;timestamp;temperature;humidity
23010;DHT22;11671;49.990;8.028;2023-09-08T00:00:56;19.10;99.90
23010;DHT22;11671;49.990;8.028;2023-09-08T00:03:21;19.10;99.90
23010;DHT22;11671;49.990;8.028;2023-09-08T00:05:47;19.00;99.90
23010;DHT22;11671;49.990;8.028;2023-09-08T00:08:12;19.00;99.90
23010;DHT22;11671;49.990;8.028;2023-09-08T00:10:38;19.00;99.90
23010;DHT22;11671;49.990;8.028;2023-09-08T00:13:04;19.00;99.90
23010;DHT22;11671;49.990;8.028;2023-09-08T00:15:29;18.90;99.90
23010;DHT22;11671;49.990;8.028;2023-09-08T00:17:55;18.90;99.90
23010;DHT22;11671;49.990;8.028;2023-09-08T00:20:22;18.90;99.90
23010;DHT22;11671;49.990;8.028;2023-09-08T00:22:48;18.90;99.90
23010;DHT22;11671;49.990;8.028;2023-09-08T00:25:13;18.90;99.90
23010;DHT22;11671;49.990;8.028;2023-09-08T00:27:39;18.80;99.90
23010;DHT22;11671;49.990;8.028;2023-09-08T00:30:05;18.80;99.90
23010;DHT22;11671;49.990;8.028;2023-09-08T00:32:31;18.80;99.90
23010;DHT22;11671;49.990;8.028;2023-09-08T00:34:56;18.80;99.90
23010;DHT22;11671;49.990;8.028;2023-09-08T00:37:22;18.80;99.90
23010;DHT22;11671;49.990;8.028;2023-09-08T00:39:47;18.70;99.90
23010;DHT22;11671;49.990;8.028;2023-09-08T00:42:13;18.70;99.90
23010;DHT22;11671;49.990;8.028;2023-09-08T00:44:38;18.60;99.90
23010;DHT22;11671;49.990;8.028;2023-09-08T00:47:04;18.60;99.90
23010;DHT22;11671;49.990;8.028;2023-09-08T00:49:30;18.60;99.90
23010;DHT22;11671;49.990;8.028;2023-09-08T00:51:56;18.60;99.90
23010;DHT22;11671;49.990;8.028;2023-09-08T00:54:22;18.60;99.90
23010;DHT22;11671;49.990;8.028;2023-09-08T00:56:48;18.60;99.90
23010;DHT22;11671;49.990;8.028;2023-09-08T00:59:14;18.60;99.90
23010;DHT22;11671;49.990;8.028;2023-09-08T01:01:40;18.50;99.90
23010;DHT22;11671;49.990;8.028;2023-09-08T01:04:06;18.40;99.90
23010;DHT22;11671;49.990;8.028;2023-09-08T01:06:32;18.50;99.90
23010;DHT22;11671;49.990;8.028;2023-09-08T01:09:01;18.50;99.90
23010;DHT22;11671;49.990;8.028;2023-09-08T01:11:28;18.40;99.90
23010;DHT22;11671;49.990;8.028;2023-09-08T01:13:53;18.50;99.90
23010;DHT22;11671;49.990;8.028;2023-09-08T01:16:19;18.50;99.90
23010;DHT22;11671;49.990;8.028;2023-09-08T01:18:46;18.50;99.90
23010;DHT22;11671;49.990;8.028;2023-09-08T01:21:25;18.50;99.90
23010;DHT22;11671;49.990;8.028;2023-09-08T01:26:37;18.40;99.90
23010;DHT22;11671;49.990;8.028;2023-09-08T01:29:05;18.40;99.90
23010;DHT22;11671;49.990;8.028;2023-09-08T01:31:32;18.30;99.90
23010;DHT22;11671;49.990;8.028;2023-09-08T01:36:24;18.30;99.90
23010;DHT22;11671;49.990;8.028;2023-09-08T01:38:50;18.20;99.90
23010;DHT22;11671;49.990;8.028;2023-09-08T01:41:15;18.10;99.90
23010;DHT22;11671;49.990;8.028;2023-09-08T01:43:41;18.10;99.90
23010;DHT22;11671;49.990;8.028;2023-09-08T01:46:06;18.10;99.90
23010;DHT22;11671;49.990;8.028;2023-09-08T01:48:32;18.10;99.90
23010;DHT22;11671;49.990;8.028;2023-09-08T01:50:57;18.10;99.90
23010;DHT22;11671;49.990;8.028;2023-09-08T01:53:23;18.10;99.90
23010;DHT22;11671;49.990;8.028;2023-09-08T01:55:48;18.00;99.90
23010;DHT22;11671;49.990;8.028;2023-09-08T01:58:14;18.00;99.90
23010;DHT22;11671;49.990;8.028;2023-09-08T02:00:39;18.00;99.90
23010;DHT22;11671;49.990;8.028;2023-09-08T02:03:05;17.90;99.90
23010;DHT22;11671;49.990;8.028;2023-09-08T02:05:30;17.90;99.90
23010;DHT22;11671;49.990;8.028;2023-09-08T02:07:56;17.90;99.90
23010;DHT22;11671;49.990;8.028;2023-09-08T02:10:22;17.90;99.90
23010;DHT22;11671;49.990;8.028;2023-09-08T02:12:48;17.90;99.90
23010;DHT22;11671;49.990;8.028;2023-09-08T02:15:13;17.80;99.90
23010;DHT22;11671;49.990;8.028;2023-09-08T02:17:39;17.80;99.90
23010;DHT22;11671;49.990;8.028;2023-09-08T02:20:05;17.70;99.90
23010;DHT22;11671;49.990;8.028;2023-09-08T02:22:31;17.70;99.90
23010;DHT22;11671;49.990;8.028;2023-09-08T02:24:56;17.60;99.90
23010;DHT22;11671;49.990;8.028;2023-09-08T02:27:23;17.60;99.90
23010;DHT22;11671;49.990;8.028;2023-09-08T02:29:48;17.60;99.90
23010;DHT22;11671;49.990;8.028;2023-09-08T02:32:14;17.60;99.90
23010;DHT22;11671;49.990;8.028;2023-09-08T02:34:40;17.60;99.90
23010;DHT22;11671;49.990;8.028;2023-09-08T02:37:07;17.50;99.90
23010;DHT22;11671;49.990;8.028;2023-09-08T02:39:33;17.50;99.90
23010;DHT22;11671;49.990;8.028;2023-09-08T02:41:59;17.50;99.90
23010;DHT22;11671;49.990;8.028;2023-09-08T02:44:24;17.50;99.90
23010;DHT22;11671;49.990;8.028;2023-09-08T02:46:52;17.50;99.90
23010;DHT22;11671;49.990;8.028;2023-09-08T02:49:17;17.50;99.90
23010;DHT22;11671;49.990;8.028;2023-09-08T02:51:43;17.50;99.90
23010;DHT22;11671;49.990;8.028;2023-09-08T02:54:08;17.50;99.90
23010;DHT22;11671;49.990;8.028;2023-09-08T02:56:34;17.50;99.90
23010;DHT22;11671;49.990;8.028;2023-09-08T02:58:59;17.50;99.90
23010;DHT22;11671;49.990;8.028;2023-09-08T03:01:25;17.40;99.90
23010;DHT22;11671;49.990;8.028;2023-09-08T03:03:51;17.40;99.90
23010;DHT22;11671;49.990;8.028;2023-09-08T03:06:18;17.40;99.90
23010;DHT22;11671;49.990;8.028;2023-09-08T03:08:44;17.20;99.90
23010;DHT22;11671;49.990;8.028;2023-09-08T03:13:45;17.10;99.90
23010;DHT22;11671;49.990;8.028;2023-09-08T03:16:11;17.00;99.90
23010;DHT22;11671;49.990;8.028;2023-09-08T03:18:37;17.00;99.90
23010;DHT22;11671;49.990;8.028;2023-09-08T03:21:03;17.00;99.90
23010;DHT22;11671;49.990;8.028;2023-09-08T03:23:38;16.90;99.90
23010;DHT22;11671;49.990;8.028;2023-09-08T03:26:04;16.90;99.90
23010;DHT22;11671;49.990;8.028;2023-09-08T03:28:30;16.80;99.90
23010;DHT22;11671;49.990;8.028;2023-09-08T03:30:55;16.70;99.90
23010;DHT22;11671;49.990;8.028;2023-09-08T03:33:21;16.70;99.90
23010;DHT22;11671;49.990;8.028;2023-09-08T03:35:46;17.10;99.90
23010;DHT22;11671;49.990;8.028;2023-09-08T03:38:13;16.80;99.90
23010;DHT22;11671;49.990;8.028;2023-09-08T03:40:40;16.80;99.90
23010;DHT22;11671;49.990;8.028;2023-09-08T03:43:12;16.90;99.90
23010;DHT22;11671;49.990;8.028;2023-09-08T03:45:41;16.80;99.90
23010;DHT22;11671;49.990;8.028;2023-09-08T03:48:08;16.90;99.90
23010;DHT22;11671;49.990;8.028;2023-09-08T03:50:35;16.80;99.90
23010;DHT22;11671;49.990;8.028;2023-09-08T03:53:00;16.80;99.90
23010;DHT22;11671;49.990;8.028;2023-09-08T03:55:30;16.80;99.90
23010;DHT22;11671;49.990;8.028;2023-09-08T03:57:55;16.80;99.90
23010;DHT22;11671;49.990;8.028;2023-09-08T04:00:21;16.80;99.90
23010;DHT22;11671;49.990;8.028;2023-09-08T04:02:51;16.80;99.90
23010;DHT22;11671;49.990;8.028;2023-09-08T04:05:17;16.70;99.90
23010;DHT22;11671;49.990;8.028;2023-09-08T04:07:46;16.70;99.90
23010;DHT22;11671;49.990;8.028;2023-09-08T04:10:12;16.70;99.90
23010;DHT22;11671;49.990;8.028;2023-09-08T04:12:38;16.70;99.90
23010;DHT22;11671;49.990;8.028;2023-09-08T04:15:04;16.70;99.90
23010;DHT22;11671;49.990;8.028;2023-09-08T04:17:30;16.70;99.90
23010;DHT22;11671;49.990;8.028;2023-09-08T04:19:55;16.70;99.90
23010;DHT22;11671;49.990;8.028;2023-09-08T04:22:21;16.70;99.90
23010;DHT22;11671;49.990;8.028;2023-09-08T04:24:47;16.70;99.90
23010;DHT22;11671;49.990;8.028;2023-09-08T04:27:12;16.70;99.90
23010;DHT22;11671;49.990;8.028;2023-09-08T04:29:38;16.70;99.90
23010;DHT22;11671;49.990;8.028;2023-09-08T04:32:04;16.70;99.90
23010;DHT22;11671;49.990;8.028;2023-09-08T04:34:39;16.70;99.90
23010;DHT22;11671;49.990;8.028;2023-09-08T04:37:05;16.70;99.90
23010;DHT22;11671;49.990;8.028;2023-09-08T04:39:31;16.60;99.90
23010;DHT22;11671;49.990;8.028;2023-09-08T04:41:56;16.60;99.90
23010;DHT22;11671;49.990;8.028;2023-09-08T04:44:22;16.60;99.90
23010;DHT22;11671;49.990;8.028;2023-09-08T04:46:48;16.60;99.90
23010;DHT22;11671;49.990;8.028;2023-09-08T04:49:13;16.60;99.90
23010;DHT22;11671;49.990;8.028;2023-09-08T04:51:39;16.60;99.90
23010;DHT22;11671;49.990;8.028;2023-09-08T04:54:04;16.60;99.90
23010;DHT22;11671;49.990;8.028;2023-09-08T04:56:33;16.70;99.90
23010;DHT22;11671;49.990;8.028;2023-09-08T04:58:58;16.60;99.90
23010;DHT22;11671;49.990;8.028;2023-09-08T05:01:26;16.60;99.90
23010;DHT22;11671;49.990;8.028;2023-09-08T05:03:52;16.90;99.90
23010;DHT22;11671;49.990;8.028;2023-09-08T05:06:17;16.50;99.90
23010;DHT22;11671;49.990;8.028;2023-09-08T05:08:43;16.50;99.90
23010;DHT22;11671;49.990;8.028;2023-09-08T05:11:10;16.50;99.90
23010;DHT22;11671;49.990;8.028;2023-09-08T05:13:35;16.40;99.90
23010;DHT22;11671;49.990;8.028;2023-09-08T05:16:01;16.50;99.90
23010;DHT22;11671;49.990;8.028;2023-09-08T05:21:05;16.30;99.90
23010;DHT22;11671;49.990;8.028;2023-09-08T05:23:30;16.30;99.90
23010;DHT22;11671;49.990;8.028;2023-09-08T05:25:56;16.40;99.90
23010;DHT22;11671;49.990;8.028;2023-09-08T05:28:22;16.50;99.90
23010;DHT22;11671;49.990;8.028;2023-09-08T05:30:50;16.50;99.90
23010;DHT22;11671;49.990;8.028;2023-09-08T05:33:16;16.60;99.90
23010;DHT22;11671;49.990;8.028;2023-09-08T05:35:41;16.70;99.90
23010;DHT22;11671;49.990;8.028;2023-09-08T05:38:07;17.00;99.90
23010;DHT22;11671;49.990;8.028;2023-09-08T05:40:32;17.40;99.90
23010;DHT22;11671;49.990;8.028;2023-09-08T05:42:59;17.90;99.90
23010;DHT22;11671;49.990;8.028;2023-09-08T05:45:25;18.40;99.90
23010;DHT22;11671;49.990;8.028;2023-09-08T05:47:51;19.20;99.90
23010;DHT22;11671;49.990;8.028;2023-09-08T05:50:17;20.10;99.90
23010;DHT22;11671;49.990;8.028;2023-09-08T05:52:43;20.80;99.90
23010;DHT22;11671;49.990;8.028;2023-09-08T05:55:08;21.40;99.90
23010;DHT22;11671;49.990;8.028;2023-09-08T05:57:34;21.90;99.90
23010;DHT22;11671;49.990;8.028;2023-09-08T06:00:00;22.40;99.90
23010;DHT22;11671;49.990;8.028;2023-09-08T06:02:26;22.90;99.90
23010;DHT22;11671;49.990;8.028;2023-09-08T06:04:52;23.30;99.90
23010;DHT22;11671;49.990;8.028;2023-09-08T06:07:17;23.60;99.90
23010;DHT22;11671;49.990;8.028;2023-09-08T06:09:43;24.00;99.90
23010;DHT22;11671;49.990;8.028;2023-09-08T06:12:08;24.20;99.90
23010;DHT22;11671;49.990;8.028;2023-09-08T06:14:34;24.40;99.90
23010;DHT22;11671;49.990;8.028;2023-09-08T06:16:59;24.50;99.90
23010;DHT22;11671;49.990;8.028;2023-09-08T06:19:25;24.60;99.90
23010;DHT22;11671;49.990;8.028;2023-09-08T06:21:50;24.60;99.90
23010;DHT22;11671;49.990;8.028;2023-09-08T06:24:16;24.90;99.90
23010;DHT22;11671;49.990;8.028;2023-09-08T06:26:42;25.50;99.90
23010;DHT22;11671;49.990;8.028;2023-09-08T06:29:08;25.50;99.90
23010;DHT22;11671;49.990;8.028;2023-09-08T06:31:33;25.80;99.90
23010;DHT22;11671;49.990;8.028;2023-09-08T06:33:59;25.80;99.90
23010;DHT22;11671;49.990;8.028;2023-09-08T06:36:24;25.70;99.90
23010;DHT22;11671;49.990;8.028;2023-09-08T06:38:50;25.90;99.90
23010;DHT22;11671;49.990;8.028;2023-09-08T06:41:16;25.90;99.90
23010;DHT22;11671;49.990;8.028;2023-09-08T06:43:43;25.80;99.90
23010;DHT22;11671;49.990;8.028;2023-09-08T06:46:09;25.60;99.90
23010;DHT22;11671;49.990;8.028;2023-09-08T06:48:35;25.60;99.90
23010;DHT22;11671;49.990;8.028;2023-09-08T06:51:01;25.50;99.90
23010;DHT22;11671;49.990;8.028;2023-09-08T06:53:26;25.50;99.90
23010;DHT22;11671;49.990;8.028;2023-09-08T06:55:52;25.40;99.90
23010;DHT22;11671;49.990;8.028;2023-09-08T06:58:17;25.40;99.90
23010;DHT22;11671;49.990;8.028;2023-09-08T07:00:43;25.20;99.90
23010;DHT22;11671;49.990;8.028;2023-09-08T07:03:09;25.30;99.90
23010;DHT22;11671;49.990;8.028;2023-09-08T07:05:35;25.40;99.90
23010;DHT22;11671;49.990;8.028;2023-09-08T07:08:00;25.50;99.90
23010;DHT22;11671;49.990;8.028;2023-09-08T07:10:26;25.60;99.90
23010;DHT22;11671;49.990;8.028;2023-09-08T07:12:53;25.70;99.90
23010;DHT22;11671;49.990;8.028;2023-09-08T07:15:19;25.60;99.90
23010;DHT22;11671;49.990;8.028;2023-09-08T07:17:44;25.60;99.90
23010;DHT22;11671;49.990;8.028;2023-09-08T07:20:10;25.60;99.90
23010;DHT22;11671;49.990;8.028;2023-09-08T07:22:36;25.60;99.90
23010;DHT22;11671;49.990;8.028;2023-09-08T07:25:01;25.50;99.90
23010;DHT22;11671;49.990;8.028;2023-09-08T07:27:27;25.80;99.90
23010;DHT22;11671;49.990;8.028;2023-09-08T07:29:53;25.80;99.90
23010;DHT22;11671;49.990;8.028;2023-09-08T07:32:18;26.00;99.90
23010;DHT22;11671;49.990;8.028;2023-09-08T07:34:44;26.20;99.90
23010;DHT22;11671;49.990;8.028;2023-09-08T07:37:10;26.30;99.90
23010;DHT22;11671;49.990;8.028;2023-09-08T07:39:36;26.50;99.90
23010;DHT22;11671;49.990;8.028;2023-09-08T07:42:02;26.40;99.90
23010;DHT22;11671;49.990;8.028;2023-09-08T07:44:27;26.10;99.90
23010;DHT22;11671;49.990;8.028;2023-09-08T07:46:54;26.30;99.90
23010;DHT22;11671;49.990;8.028;2023-09-08T07:49:21;26.30;99.90
23010;DHT22;11671;49.990;8.028;2023-09-08T07:51:47;26.30;99.90
23010;DHT22;11671;49.990;8.028;2023-09-08T07:54:13;26.40;99.90
23010;DHT22;11671;49.990;8.028;2023-09-08T07:56:39;26.50;99.90
23010;DHT22;11671;49.990;8.028;2023-09-08T07:59:06;26.50;99.90
23010;DHT22;11671;49.990;8.028;2023-09-08T08:01:32;26.60;99.90
23010;DHT22;11671;49.990;8.028;2023-09-08T08:03:58;26.70;99.90
23010;DHT22;11671;49.990;8.028;2023-09-08T08:06:23;27.00;99.90
23010;DHT22;11671;49.990;8.028;2023-09-08T08:08:49;27.30;99.90
23010;DHT22;11671;49.990;8.028;2023-09-08T08:11:16;27.30;99.90
23010;DHT22;11671;49.990;8.028;2023-09-08T08:13:46;27.10;99.90
23010;DHT22;11671;49.990;8.028;2023-09-08T08:16:11;27.10;99.90
23010;DHT22;11671;49.990;8.028;2023-09-08T08:18:37;26.90;99.90
23010;DHT22;11671;49.990;8.028;2023-09-08T08:21:02;26.70;99.90
23010;DHT22;11671;49.990;8.028;2023-09-08T08:23:29;26.60;99.90
23010;DHT22;11671;49.990;8.028;2023-09-08T08:25:55;26.60;99.90
23010;DHT22;11671;49.990;8.028;2023-09-08T08:28:21;26.70;99.90
23010;DHT22;11671;49.990;8.028;2023-09-08T08:30:47;26.80;99.90
23010;DHT22;11671;49.990;8.028;2023-09-08T08:33:13;27.00;99.90
23010;DHT22;11671;49.990;8.028;2023-09-08T08:35:39;27.10;99.90
23010;DHT22;11671;49.990;8.028;2023-09-08T08:38:05;27.30;99.90
23010;DHT22;11671;49.990;8.028;2023-09-08T08:40:31;27.30;99.90
23010;DHT22;11671;49.990;8.028;2023-09-08T08:42:57;27.50;99.90
23010;DHT22;11671;49.990;8.028;2023-09-08T08:45:24;27.50;99.90
23010;DHT22;11671;49.990;8.028;2023-09-08T08:50:20;27.90;99.90
23010;DHT22;11671;49.990;8.028;2023-09-08T08:52:46;27.80;99.90
23010;DHT22;11671;49.990;8.028;2023-09-08T08:55:13;27.70;99.90
23010;DHT22;11671;49.990;8.028;2023-09-08T08:57:41;27.90;99.90
23010;DHT22;11671;49.990;8.028;2023-09-08T09:00:09;28.00;99.90
23010;DHT22;11671;49.990;8.028;2023-09-08T09:05:03;28.40;99.90
23010;DHT22;11671;49.990;8.028;2023-09-08T09:07:30;28.50;99.90
23010;DHT22;11671;49.990;8.028;2023-09-08T09:09:55;28.60;99.90
23010;DHT22;11671;49.990;8.028;2023-09-08T09:12:21;28.50;99.90
23010;DHT22;11671;49.990;8.028;2023-09-08T09:14:47;28.60;99.90
23010;DHT22;11671;49.990;8.028;2023-09-08T09:17:14;28.60;99.90
23010;DHT22;11671;49.990;8.028;2023-09-08T09:19:40;28.60;99.90
23010;DHT22;11671;49.990;8.028;2023-09-08T09:22:05;28.70;99.90
23010;DHT22;11671;49.990;8.028;2023-09-08T09:24:36;28.80;99.90
23010;DHT22;11671;49.990;8.028;2023-09-08T09:27:07;28.20;99.90
23010;DHT22;11671;49.990;8.028;2023-09-08T09:29:33;28.20;99.90
23010;DHT22;11671;49.990;8.028;2023-09-08T09:32:04;27.90;99.90
23010;DHT22;11671;49.990;8.028;2023-09-08T09:34:31;28.10;99.90
23010;DHT22;11671;49.990;8.028;2023-09-08T09:36:57;27.90;99.90
23010;DHT22;11671;49.990;8.028;2023-09-08T09:39:24;27.60;99.90
23010;DHT22;11671;49.990;8.028;2023-09-08T09:41:54;27.50;99.90
23010;DHT22;11671;49.990;8.028;2023-09-08T09:44:21;27.70;99.90
23010;DHT22;11671;49.990;8.028;2023-09-08T09:46:47;27.90;99.90
23010;DHT22;11671;49.990;8.028;2023-09-08T09:49:14;28.20;99.90
23010;DHT22;11671;49.990;8.028;2023-09-08T09:51:42;28.40;99.90
23010;DHT22;11671;49.990;8.028;2023-09-08T09:54:08;28.30;99.90
23010;DHT22;11671;49.990;8.028;2023-09-08T09:56:34;28.40;99.90
23010;DHT22;11671;49.990;8.028;2023-09-08T09:59:03;28.40;99.90
23010;DHT22;11671;49.990;8.028;2023-09-08T10:01:29;28.30;99.90
23010;DHT22;11671;49.990;8.028;2023-09-08T10:03:55;28.20;99.90
23010;DHT22;11671;49.990;8.028;2023-09-08T10:06:21;28.20;99.90
23010;DHT22;11671;49.990;8.028;2023-09-08T10:08:48;28.30;99.90
23010;DHT22;11671;49.990;8.028;2023-09-08T10:11:16;28.20;99.90
23010;DHT22;11671;49.990;8.028;2023-09-08T10:13:46;28.20;99.90
23010;DHT22;11671;49.990;8.028;2023-09-08T10:16:16;28.10;99.90
23010;DHT22;11671;49.990;8.028;2023-09-08T10:18:46;28.30;99.90
23010;DHT22;11671;49.990;8.028;2023-09-08T10:21:13;28.50;99.90
23010;DHT22;11671;49.990;8.028;2023-09-08T10:23:43;28.50;99.90
23010;DHT22;11671;49.990;8.028;2023-09-08T10:26:11;28.10;99.90
23010;DHT22;11671;49.990;8.028;2023-09-08T10:28:38;28.10;99.90
23010;DHT22;11671;49.990;8.028;2023-09-08T10:31:04;28.20;99.90
23010;DHT22;11671;49.990;8.028;2023-09-08T10:33:31;28.50;99.90
23010;DHT22;11671;49.990;8.028;2023-09-08T10:35:58;28.70;99.90
23010;DHT22;11671;49.990;8.028;2023-09-08T10:38:26;28.70;99.90
23010;DHT22;11671;49.990;8.028;2023-09-08T10:40:53;28.70;99.90
23010;DHT22;11671;49.990;8.028;2023-09-08T10:43:38;28.70;99.90
23010;DHT22;11671;49.990;8.028;2023-09-08T10:46:12;28.70;99.90
23010;DHT22;11671;49.990;8.028;2023-09-08T10:48:46;28.70;99.90
23010;DHT22;11671;49.990;8.028;2023-09-08T10:51:18;28.90;99.90
23010;DHT22;11671;49.990;8.028;2023-09-08T10:53:47;29.00;99.90
23010;DHT22;11671;49.990;8.028;2023-09-08T10:56:13;29.00;99.90
23010;DHT22;11671;49.990;8.028;2023-09-08T10:58:39;28.90;99.90
23010;DHT22;11671;49.990;8.028;2023-09-08T11:01:08;28.90;99.90
23010;DHT22;11671;49.990;8.028;2023-09-08T11:06:04;28.90;99.90
23010;DHT22;11671;49.990;8.028;2023-09-08T11:08:30;29.10;99.90
23010;DHT22;11671;49.990;8.028;2023-09-08T11:10:56;29.10;99.90
23010;DHT22;11671;49.990;8.028;2023-09-08T11:13:22;28.90;99.90
23010;DHT22;11671;49.990;8.028;2023-09-08T11:15:50;28.90;99.90
23010;DHT22;11671;49.990;8.028;2023-09-08T11:18:16;28.80;99.90
23010;DHT22;11671;49.990;8.028;2023-09-08T11:20:41;28.80;99.90
23010;DHT22;11671;49.990;8.028;2023-09-08T11:23:10;28.70;99.90
23010;DHT22;11671;49.990;8.028;2023-09-08T11:25:35;28.70;99.90
23010;DHT22;11671;49.990;8.028;2023-09-08T11:28:01;28.80;99.90
23010;DHT22;11671;49.990;8.028;2023-09-08T11:30:27;28.80;99.90
23010;DHT22;11671;49.990;8.028;2023-09-08T11:32:53;28.90;99.90
23010;DHT22;11671;49.990;8.028;2023-09-08T11:35:18;29.00;99.90
23010;DHT22;11671;49.990;8.028;2023-09-08T11:40:12;29.10;99.90
23010;DHT22;11671;49.990;8.028;2023-09-08T11:42:43;29.30;99.90
23010;DHT22;11671;49.990;8.028;2023-09-08T11:45:13;29.40;99.90
23010;DHT22;11671;49.990;8.028;2023-09-08T11:47:43;29.50;99.90
23010;DHT22;11671;49.990;8.028;2023-09-08T11:50:12;29.60;99.90
23010;DHT22;11671;49.990;8.028;2023-09-08T11:52:44;29.60;99.90
23010;DHT22;11671;49.990;8.028;2023-09-08T11:55:10;29.60;99.90
23010;DHT22;11671;49.990;8.028;2023-09-08T11:57:37;29.80;99.90
23010;DHT22;11671;49.990;8.028;2023-09-08T12:00:03;29.80;99.90
23010;DHT22;11671;49.990;8.028;2023-09-08T12:02:34;29.60;99.90
23010;DHT22;11671;49.990;8.028;2023-09-08T12:05:01;29.60;99.90
23010;DHT22;11671;49.990;8.028;2023-09-08T12:07:26;29.70;99.90
23010;DHT22;11671;49.990;8.028;2023-09-08T12:09:52;29.80;99.90
23010;DHT22;11671;49.990;8.028;2023-09-08T12:12:18;29.90;99.90
23010;DHT22;11671;49.990;8.028;2023-09-08T12:17:09;30.20;99.90
23010;DHT22;11671;49.990;8.028;2023-09-08T12:19:35;30.00;99.90
23010;DHT22;11671;49.990;8.028;2023-09-08T12:22:03;30.00;99.90
23010;DHT22;11671;49.990;8.028;2023-09-08T12:29:59;30.40;99.90
23010;DHT22;11671;49.990;8.028;2023-09-08T12:32:30;30.50;99.90
23010;DHT22;11671;49.990;8.028;2023-09-08T12:34:57;31.00;99.90
23010;DHT22;11671;49.990;8.028;2023-09-08T12:37:24;31.00;99.90
23010;DHT22;11671;49.990;8.028;2023-09-08T12:39:53;31.10;99.90
23010;DHT22;11671;49.990;8.028;2023-09-08T12:42:19;31.00;99.90
23010;DHT22;11671;49.990;8.028;2023-09-08T12:44:45;31.00;99.90
23010;DHT22;11671;49.990;8.028;2023-09-08T12:47:11;30.90;99.90
23010;DHT22;11671;49.990;8.028;2023-09-08T12:49:39;30.90;99.90
23010;DHT22;11671;49.990;8.028;2023-09-08T12:52:06;31.10;99.90
23010;DHT22;11671;49.990;8.028;2023-09-08T12:54:32;31.40;99.90
23010;DHT22;11671;49.990;8.028;2023-09-08T12:56:57;31.80;99.90
23010;DHT22;11671;49.990;8.028;2023-09-08T12:59:23;31.90;99.90
23010;DHT22;11671;49.990;8.028;2023-09-08T13:01:49;32.10;99.90
23010;DHT22;11671;49.990;8.028;2023-09-08T13:04:14;32.10;99.90
23010;DHT22;11671;49.990;8.028;2023-09-08T13:06:40;31.70;99.90
23010;DHT22;11671;49.990;8.028;2023-09-08T13:09:06;31.70;99.90
23010;DHT22;11671;49.990;8.028;2023-09-08T13:11:32;31.90;99.90
23010;DHT22;11671;49.990;8.028;2023-09-08T13:13:58;31.90;99.90
23010;DHT22;11671;49.990;8.028;2023-09-08T13:16:24;32.10;99.90
23010;DHT22;11671;49.990;8.028;2023-09-08T13:18:49;32.30;99.90
23010;DHT22;11671;49.990;8.028;2023-09-08T13:21:15;32.30;99.90
23010;DHT22;11671;49.990;8.028;2023-09-08T13:26:07;32.50;99.90
23010;DHT22;11671;49.990;8.028;2023-09-08T13:28:32;32.80;99.90
23010;DHT22;11671;49.990;8.028;2023-09-08T13:30:58;33.10;99.90
23010;DHT22;11671;49.990;8.028;2023-09-08T13:33:23;33.00;99.90
23010;DHT22;11671;49.990;8.028;2023-09-08T13:35:49;32.90;99.90
23010;DHT22;11671;49.990;8.028;2023-09-08T13:38:14;32.90;99.90
23010;DHT22;11671;49.990;8.028;2023-09-08T13:40:40;33.00;99.70
23010;DHT22;11671;49.990;8.028;2023-09-08T13:43:06;33.00;99.90
23010;DHT22;11671;49.990;8.028;2023-09-08T13:45:32;32.90;99.80
23010;DHT22;11671;49.990;8.028;2023-09-08T13:47:58;32.80;99.40
23010;DHT22;11671;49.990;8.028;2023-09-08T13:50:23;33.00;98.70
23010;DHT22;11671;49.990;8.028;2023-09-08T13:52:49;33.10;97.70
23010;DHT22;11671;49.990;8.028;2023-09-08T13:55:15;33.10;98.40
23010;DHT22;11671;49.990;8.028;2023-09-08T13:57:41;33.10;98.00
23010;DHT22;11671;49.990;8.028;2023-09-08T14:00:07;33.00;98.40
23010;DHT22;11671;49.990;8.028;2023-09-08T14:02:34;32.70;99.60
23010;DHT22;11671;49.990;8.028;2023-09-08T14:04:59;32.60;99.90
23010;DHT22;11671;49.990;8.028;2023-09-08T14:07:25;32.60;98.40
23010;DHT22;11671;49.990;8.028;2023-09-08T14:09:51;32.30;99.00
23010;DHT22;11671;49.990;8.028;2023-09-08T14:12:16;32.20;99.40
23010;DHT22;11671;49.990;8.028;2023-09-08T14:14:43;32.10;99.00
23010;DHT22;11671;49.990;8.028;2023-09-08T14:17:09;32.10;99.10
23010;DHT22;11671;49.990;8.028;2023-09-08T14:19:34;31.90;99.10
23010;DHT22;11671;49.990;8.028;2023-09-08T14:22:00;31.80;99.90
23010;DHT22;11671;49.990;8.028;2023-09-08T14:24:25;31.80;99.90
23010;DHT22;11671;49.990;8.028;2023-09-08T14:26:51;31.60;99.90
23010;DHT22;11671;49.990;8.028;2023-09-08T14:29:17;31.80;99.90
23010;DHT22;11671;49.990;8.028;2023-09-08T14:31:43;32.10;99.90
23010;DHT22;11671;49.990;8.028;2023-09-08T14:34:09;32.40;99.90
23010;DHT22;11671;49.990;8.028;2023-09-08T14:36:34;32.40;99.80
23010;DHT22;11671;49.990;8.028;2023-09-08T14:39:00;32.50;99.90
23010;DHT22;11671;49.990;8.028;2023-09-08T14:41:26;32.70;99.90
23010;DHT22;11671;49.990;8.028;2023-09-08T14:43:52;32.40;99.90
23010;DHT22;11671;49.990;8.028;2023-09-08T14:46:17;32.00;99.90
23010;DHT22;11671;49.990;8.028;2023-09-08T14:48:43;31.70;99.90
23010;DHT22;11671;49.990;8.028;2023-09-08T14:51:08;31.50;99.90
23010;DHT22;11671;49.990;8.028;2023-09-08T14:53:34;31.40;99.90
23010;DHT22;11671;49.990;8.028;2023-09-08T14:56:00;31.40;99.90
23010;DHT22;11671;49.990;8.028;2023-09-08T14:58:26;31.50;99.90
23010;DHT22;11671;49.990;8.028;2023-09-08T15:00:57;31.50;99.60
23010;DHT22;11671;49.990;8.028;2023-09-08T15:03:23;31.30;99.80
23010;DHT22;11671;49.990;8.028;2023-09-08T15:05:49;31.30;99.90
23010;DHT22;11671;49.990;8.028;2023-09-08T15:08:14;31.30;99.90
23010;DHT22;11671;49.990;8.028;2023-09-08T15:10:40;31.30;99.90
23010;DHT22;11671;49.990;8.028;2023-09-08T15:13:06;31.30;99.80
23010;DHT22;11671;49.990;8.028;2023-09-08T15:15:31;31.30;99.90
23010;DHT22;11671;49.990;8.028;2023-09-08T15:17:57;31.40;99.90
23010;DHT22;11671;49.990;8.028;2023-09-08T15:20:22;31.40;99.00
23010;DHT22;11671;49.990;8.028;2023-09-08T15:22:48;31.40;99.70
23010;DHT22;11671;49.990;8.028;2023-09-08T15:25:14;31.30;99.90
23010;DHT22;11671;49.990;8.028;2023-09-08T15:27:40;31.20;99.60
23010;DHT22;11671;49.990;8.028;2023-09-08T15:30:07;31.10;99.90
23010;DHT22;11671;49.990;8.028;2023-09-08T15:32:33;31.10;99.90
23010;DHT22;11671;49.990;8.028;2023-09-08T15:34:58;31.00;99.90
23010;DHT22;11671;49.990;8.028;2023-09-08T15:37:24;31.00;99.90
23010;DHT22;11671;49.990;8.028;2023-09-08T15:39:49;31.00;99.90
23010;DHT22;11671;49.990;8.028;2023-09-08T15:42:15;31.00;99.90
23010;DHT22;11671;49.990;8.028;2023-09-08T15:44:41;30.90;99.90
23010;DHT22;11671;49.990;8.028;2023-09-08T15:47:06;31.00;99.90
23010;DHT22;11671;49.990;8.028;2023-09-08T15:49:32;31.10;99.90
23010;DHT22;11671;49.990;8.028;2023-09-08T15:51:57;31.10;99.90
23010;DHT22;11671;49.990;8.028;2023-09-08T15:54:24;30.80;99.90